Arnolds Park, Iowa
Current Conditions -  °F | °C
As of 5:53 PM on Friday 28 Nov 2014 (Local Time) from KSPW Reporting Station
Clear Clear  
Wind Chill: 20°   Ceiling: Unl
Heat Index: 29°   Visibility: 9mi
Dew Point: 25°   Wind: 9mph
Humidity: 85%   Direction: 130°SE
Pressure: 29.71"   Gusts: NA
Location:  43.37°N, 95.12°W
Report Text: KSPW 282353Z AUTO 13008KT 9SM CLR M02/M04 A2971 RMK AO2 SLP079 T10171039 10000 21033 56005 TSNO
Loading
Personal Weather Stations






























Interactive Weather Map New forecast layout! Learn more

10-Day Weather Forecast

Advertisements
Track Severe Weather on mobile